Time;durP1;ratioP1;P1;durP2;ratioP2;P2;SDS_P1;SDS_P2;PMS_P1;PMS_P2;Temp;Humidity;BMP_temperature;BMP_pressure;BME280_temperature;BME280_humidity;BME280_pressure;Samples;Min_cycle;Max_cycle;Signal;HPM_P1;HPM_P2
2021/05/22 00:00:15;;;;;;;1.50;1.30;;;15.70;1.00;;;;;;5111489;28;20492;-55
2021/05/22 00:02:41;;;;;;;2.30;1.60;;;15.60;1.00;;;;;;5102888;28;20627;-53
2021/05/22 00:05:08;;;;;;;1.17;1.07;;;15.60;1.00;;;;;;5113708;28;20841;-53
2021/05/22 00:07:34;;;;;;;1.93;0.97;;;15.60;1.00;;;;;;5111688;28;20179;-53
2021/05/22 00:09:59;;;;;;;1.30;0.90;;;15.60;1.00;;;;;;5112873;28;20771;-52
2021/05/22 00:12:25;;;;;;;2.57;1.20;;;15.60;1.00;;;;;;5113483;28;20265;-53
2021/05/22 00:14:53;;;;;;;2.20;0.97;;;15.60;1.00;;;;;;5103996;28;20183;-55
2021/05/22 00:17:19;;;;;;;1.77;1.20;;;15.60;1.00;;;;;;5098592;28;20246;-56
2021/05/22 00:19:45;;;;;;;1.20;1.10;;;15.60;1.00;;;;;;5107985;28;20431;-53
2021/05/22 00:22:11;;;;;;;2.20;1.30;;;15.60;1.00;;;;;;5114093;28;20174;-54
2021/05/22 00:24:36;;;;;;;2.00;1.30;;;15.60;1.00;;;;;;5106889;28;20775;-55
2021/05/22 00:27:02;;;;;;;1.33;1.23;;;15.60;1.00;;;;;;5106257;28;20178;-53
2021/05/22 00:29:28;;;;;;;1.27;1.00;;;15.60;1.00;;;;;;5113489;28;20609;-54
2021/05/22 00:31:53;;;;;;;1.93;1.30;;;15.60;1.00;;;;;;5087337;28;20297;-53
2021/05/22 00:34:19;;;;;;;1.63;0.97;;;15.70;1.00;;;;;;5100027;28;20559;-53
2021/05/22 00:36:44;;;;;;;1.40;1.30;;;15.70;1.00;;;;;;5101017;28;20238;-55
2021/05/22 00:39:10;;;;;;;1.30;1.17;;;15.70;1.00;;;;;;5107307;28;20268;-53
2021/05/22 00:41:36;;;;;;;2.57;1.13;;;15.80;1.00;;;;;;5096823;28;20189;-52
2021/05/22 00:44:01;;;;;;;1.97;1.30;;;15.80;1.00;;;;;;5111693;28;20537;-53
2021/05/22 00:46:27;;;;;;;1.40;1.30;;;15.80;1.00;;;;;;5107710;28;20178;-52
2021/05/22 00:48:52;;;;;;;1.70;1.20;;;15.80;1.00;;;;;;5091841;28;20551;-56
2021/05/22 00:51:18;;;;;;;2.20;1.70;;;15.90;1.00;;;;;;5094933;28;20206;-55
2021/05/22 00:53:43;;;;;;;1.27;1.17;;;15.90;1.00;;;;;;5094714;28;20180;-54
2021/05/22 00:56:09;;;;;;;1.97;1.43;;;15.90;1.00;;;;;;5105312;28;20845;-53
2021/05/22 00:58:36;;;;;;;1.83;1.17;;;15.80;1.00;;;;;;5096965;28;20179;-53
2021/05/22 01:01:03;;;;;;;1.33;1.20;;;15.80;1.00;;;;;;5096873;28;20281;-55
2021/05/22 01:03:33;;;;;;;2.00;1.37;;;15.80;1.00;;;;;;5109524;28;20432;-54
2021/05/22 01:06:34;;;;;;;2.00;1.10;;;15.80;1.00;;;;;;5097722;28;20439;-55
2021/05/22 01:09:11;;;;;;;1.47;1.30;;;15.80;1.00;;;;;;5067149;28;20803;-52
2021/05/22 01:11:54;;;;;;;0.90;0.90;;;15.80;1.00;;;;;;5112787;28;20462;-53
2021/05/22 01:14:33;;;;;;;1.80;1.40;;;15.70;1.00;;;;;;5107817;28;20972;-55
2021/05/22 01:17:00;;;;;;;1.20;1.07;;;15.80;1.00;;;;;;5109883;28;20455;-54
2021/05/22 01:19:40;;;;;;;0.93;0.90;;;15.80;1.00;;;;;;5110710;28;20436;-52
2021/05/22 01:22:06;;;;;;;2.43;1.23;;;15.80;1.00;;;;;;5108986;28;20437;-53
2021/05/22 01:24:42;;;;;;;1.70;1.00;;;15.60;1.00;;;;;;5112205;28;20446;-54
2021/05/22 01:27:07;;;;;;;1.00;0.90;;;15.50;1.00;;;;;;5095042;28;20436;-53
2021/05/22 01:29:33;;;;;;;1.57;1.13;;;15.60;1.00;;;;;;5106687;28;20766;-53
2021/05/22 01:31:59;;;;;;;1.47;1.30;;;15.50;1.00;;;;;;5106632;28;20686;-54
2021/05/22 01:34:24;;;;;;;1.30;1.20;;;15.40;1.00;;;;;;5112101;28;20576;-54
2021/05/22 01:36:50;;;;;;;1.20;0.93;;;15.70;1.00;;;;;;5108626;28;20275;-54
2021/05/22 01:39:16;;;;;;;0.90;0.90;;;15.40;1.00;;;;;;5111571;28;20178;-55
2021/05/22 01:41:41;;;;;;;1.60;1.17;;;15.40;1.00;;;;;;5097039;28;20437;-53
2021/05/22 01:44:10;;;;;;;1.00;0.90;;;15.40;1.00;;;;;;5097762;28;20177;-55
2021/05/22 01:46:37;;;;;;;2.53;1.17;;;15.40;1.00;;;;;;5066369;28;20729;-54
2021/05/22 01:49:04;;;;;;;1.40;1.30;;;15.30;1.00;;;;;;5109814;28;20948;-53
2021/05/22 01:51:30;;;;;;;1.00;1.00;;;15.30;1.00;;;;;;5093431;28;20949;-54
2021/05/22 01:53:56;;;;;;;1.67;1.40;;;15.30;1.00;;;;;;5106514;28;20424;-53
2021/05/22 01:56:23;;;;;;;1.40;1.30;;;15.20;1.00;;;;;;5104911;28;20187;-56
2021/05/22 01:58:49;;;;;;;2.30;1.33;;;15.20;1.00;;;;;;5093925;28;20171;-55
2021/05/22 02:01:14;;;;;;;1.07;0.97;;;15.20;1.00;;;;;;5104632;28;20467;-53
2021/05/22 02:03:47;;;;;;;2.13;0.90;;;15.20;1.00;;;;;;5086645;28;20443;-54
2021/05/22 02:06:26;;;;;;;2.33;1.13;;;15.20;1.00;;;;;;5093954;28;20212;-55
2021/05/22 02:08:56;;;;;;;1.30;1.20;;;15.30;1.00;;;;;;5109181;28;20436;-51
2021/05/22 02:11:24;;;;;;;2.10;1.10;;;15.30;1.00;;;;;;5095532;28;20458;-57
2021/05/22 02:13:51;;;;;;;2.43;1.33;;;15.30;1.00;;;;;;5111461;28;21005;-52
2021/05/22 02:16:26;;;;;;;1.50;1.40;;;15.40;1.00;;;;;;5107432;28;20436;-54
2021/05/22 02:18:54;;;;;;;1.67;1.43;;;15.50;1.00;;;;;;5092711;28;20443;-53
2021/05/22 02:21:23;;;;;;;1.37;1.10;;;15.50;1.00;;;;;;5110194;28;20572;-55
2021/05/22 02:23:49;;;;;;;1.73;1.30;;;15.50;1.00;;;;;;5102731;28;20450;-51
2021/05/22 02:26:16;;;;;;;1.30;1.20;;;15.60;1.00;;;;;;5106196;28;20435;-54
2021/05/22 02:28:43;;;;;;;2.90;1.50;;;15.50;1.00;;;;;;5111314;28;20443;-54
2021/05/22 02:31:10;;;;;;;2.93;1.20;;;15.60;1.00;;;;;;5096145;28;20456;-56
2021/05/22 02:33:36;;;;;;;1.30;1.10;;;15.60;1.00;;;;;;5086929;28;20485;-51
2021/05/22 02:36:03;;;;;;;1.57;1.47;;;16.70;1.00;;;;;;5110266;28;20972;-54
2021/05/22 02:38:38;;;;;;;1.50;1.40;;;15.50;1.00;;;;;;5107772;28;20439;-51
2021/05/22 02:41:07;;;;;;;1.47;1.37;;;15.40;1.00;;;;;;5088214;28;20443;-54
2021/05/22 02:43:33;;;;;;;1.93;1.50;;;15.70;1.00;;;;;;5090855;28;20783;-54
2021/05/22 02:46:00;;;;;;;3.13;1.60;;;15.70;1.00;;;;;;5101106;28;20448;-53
2021/05/22 02:48:28;;;;;;;1.67;1.03;;;15.70;1.00;;;;;;5104931;28;20536;-53
2021/05/22 02:50:56;;;;;;;2.93;1.30;;;15.70;1.00;;;;;;5099942;28;20591;-52
2021/05/22 02:53:25;;;;;;;1.73;1.20;;;15.60;1.00;;;;;;5108606;28;20440;-54
2021/05/22 02:55:52;;;;;;;1.00;1.00;;;15.60;1.00;;;;;;5106142;27;20448;-55
2021/05/22 02:58:19;;;;;;;1.70;1.00;;;15.60;1.00;;;;;;5077194;28;20838;-55
2021/05/22 03:00:46;;;;;;;1.40;1.17;;;15.60;1.00;;;;;;5108793;28;20508;-52
2021/05/22 03:03:12;;;;;;;1.70;1.20;;;15.70;1.00;;;;;;5110855;28;20436;-52
2021/05/22 03:05:38;;;;;;;2.73;1.30;;;15.60;1.00;;;;;;5110248;28;20451;-56
2021/05/22 03:08:04;;;;;;;1.17;0.90;;;15.60;1.00;;;;;;5097079;28;20187;-56
2021/05/22 03:10:30;;;;;;;1.50;0.90;;;15.80;1.00;;;;;;5100483;28;20478;-53
2021/05/22 03:12:56;;;;;;;1.40;0.90;;;15.70;1.00;;;;;;5109907;28;20432;-52
2021/05/22 03:15:22;;;;;;;2.40;1.00;;;15.60;1.00;;;;;;5097681;28;20443;-54
2021/05/22 03:17:47;;;;;;;1.43;0.90;;;15.60;1.00;;;;;;5103651;28;20433;-55
2021/05/22 03:20:14;;;;;;;1.10;1.00;;;15.50;1.00;;;;;;5106863;28;20339;-54
2021/05/22 03:22:41;;;;;;;1.30;1.20;;;15.70;1.00;;;;;;5104970;28;20182;-53
2021/05/22 03:25:07;;;;;;;1.00;1.00;;;15.60;1.00;;;;;;5105045;28;20471;-54
2021/05/22 03:27:33;;;;;;;1.10;0.83;;;15.60;1.00;;;;;;5106586;28;20432;-51
2021/05/22 03:29:59;;;;;;;1.30;1.20;;;15.60;1.00;;;;;;5107996;28;20816;-54
2021/05/22 03:32:25;;;;;;;1.93;1.07;;;15.80;1.00;;;;;;5110937;28;20499;-56
2021/05/22 03:34:50;;;;;;;1.30;1.20;;;15.70;1.00;;;;;;5109908;28;20956;-52
2021/05/22 03:37:16;;;;;;;1.57;1.20;;;15.70;1.00;;;;;;5091506;28;20621;-54
2021/05/22 03:39:42;;;;;;;1.23;1.13;;;15.50;1.00;;;;;;5099959;28;20191;-52
2021/05/22 03:42:08;;;;;;;1.30;1.20;;;15.50;1.00;;;;;;5107381;28;20535;-57
2021/05/22 03:44:33;;;;;;;1.20;1.10;;;15.50;1.00;;;;;;5102599;28;20198;-53
2021/05/22 03:46:59;;;;;;;1.93;1.20;;;15.60;1.00;;;;;;5110507;28;20436;-51
2021/05/22 03:49:24;;;;;;;1.20;1.10;;;15.60;1.00;;;;;;5084600;28;20186;-54
2021/05/22 03:51:50;;;;;;;0.87;0.87;;;15.60;1.00;;;;;;5109751;28;20194;-55
2021/05/22 03:54:16;;;;;;;0.90;0.80;;;15.50;1.00;;;;;;5100631;28;20212;-52
2021/05/22 03:56:41;;;;;;;0.97;0.90;;;15.40;1.00;;;;;;5109892;28;20252;-54
2021/05/22 03:59:07;;;;;;;2.30;1.40;;;15.50;1.00;;;;;;5109641;28;20178;-53
2021/05/22 04:01:32;;;;;;;1.67;1.03;;;15.40;1.00;;;;;;5102163;28;20214;-52
2021/05/22 04:03:58;;;;;;;1.73;1.23;;;15.60;1.00;;;;;;5109700;28;20190;-53
2021/05/22 04:06:23;;;;;;;1.30;1.20;;;15.60;1.00;;;;;;5106910;28;20592;-55
2021/05/22 04:08:49;;;;;;;3.63;1.30;;;15.50;1.00;;;;;;5110148;28;20651;-55
2021/05/22 04:11:14;;;;;;;1.50;1.40;;;15.50;1.00;;;;;;5109625;28;20217;-55
2021/05/22 04:13:40;;;;;;;1.20;1.10;;;15.50;1.00;;;;;;5109864;28;20277;-54
2021/05/22 04:16:06;;;;;;;1.40;1.30;;;15.50;1.00;;;;;;5096530;28;20183;-54
2021/05/22 04:18:31;;;;;;;2.90;1.37;;;17.90;1.00;;;;;;5109188;28;20265;-55
2021/05/22 04:20:57;;;;;;;1.83;1.40;;;15.30;1.00;;;;;;5105861;28;20648;-53
2021/05/22 04:23:22;;;;;;;1.90;1.27;;;15.20;1.00;;;;;;5107168;28;20200;-53
2021/05/22 04:25:48;;;;;;;1.80;1.70;;;15.20;1.00;;;;;;5086206;28;20286;-54
2021/05/22 04:28:14;;;;;;;1.73;1.63;;;15.30;1.00;;;;;;5110452;28;20531;-55
2021/05/22 04:30:39;;;;;;;3.13;1.80;;;15.30;1.00;;;;;;5091549;28;20190;-53
2021/05/22 04:33:05;;;;;;;2.83;1.63;;;15.20;1.00;;;;;;5091415;28;20186;-55
2021/05/22 04:35:31;;;;;;;3.33;1.50;;;15.40;1.00;;;;;;5107438;28;20214;-52
2021/05/22 04:37:56;;;;;;;1.40;1.30;;;15.30;1.00;;;;;;5107931;28;20175;-51
2021/05/22 04:40:22;;;;;;;1.97;1.60;;;15.30;1.00;;;;;;5092159;28;20959;-53
2021/05/22 04:42:48;;;;;;;1.40;1.30;;;15.30;1.00;;;;;;5113631;28;20193;-56
2021/05/22 04:45:14;;;;;;;2.40;1.50;;;15.30;1.00;;;;;;5098697;28;20186;-53
2021/05/22 04:47:39;;;;;;;4.30;1.60;;;15.40;1.00;;;;;;5083659;28;20182;-55
2021/05/22 04:50:07;;;;;;;2.10;1.30;;;15.40;1.00;;;;;;5105448;28;20479;-55
2021/05/22 04:52:32;;;;;;;1.63;1.47;;;15.60;1.00;;;;;;5089311;28;20221;-54
2021/05/22 04:54:58;;;;;;;3.03;1.50;;;15.50;1.00;;;;;;5104157;28;20439;-56
2021/05/22 04:57:23;;;;;;;1.83;1.70;;;15.70;1.00;;;;;;5082943;28;20202;-57
2021/05/22 04:59:49;;;;;;;2.97;2.20;;;15.70;1.00;;;;;;5109392;28;20182;-54
2021/05/22 05:02:15;;;;;;;2.40;2.20;;;15.70;1.00;;;;;;5108111;28;20631;-55
2021/05/22 05:04:40;;;;;;;2.07;1.67;;;15.80;1.00;;;;;;5109277;28;20186;-54
2021/05/22 05:07:06;;;;;;;1.60;1.50;;;15.80;1.00;;;;;;5112231;28;20228;-53
2021/05/22 05:09:38;;;;;;;3.30;1.83;;;15.90;1.00;;;;;;5113077;28;20193;-55
2021/05/22 05:12:06;;;;;;;2.70;1.50;;;15.90;1.00;;;;;;5105205;28;20664;-54
2021/05/22 05:14:32;;;;;;;2.13;1.93;;;16.00;1.00;;;;;;5089735;28;20436;-53
2021/05/22 05:16:58;;;;;;;1.90;1.73;;;16.10;1.00;;;;;;5108311;28;20489;-55
2021/05/22 05:19:27;;;;;;;1.90;1.43;;;16.20;1.00;;;;;;5100457;28;20466;-53
2021/05/22 05:21:53;;;;;;;1.50;1.40;;;16.30;1.00;;;;;;5109761;28;20447;-55
2021/05/22 05:24:18;;;;;;;1.60;1.50;;;16.30;1.00;;;;;;5112622;28;20448;-53
2021/05/22 05:26:44;;;;;;;1.90;1.70;;;16.40;1.00;;;;;;5109720;28;20182;-53
2021/05/22 05:29:09;;;;;;;2.63;1.60;;;16.40;1.00;;;;;;5112529;28;20200;-55
2021/05/22 05:31:36;;;;;;;3.17;1.40;;;16.40;1.00;;;;;;5112616;28;20604;-55
2021/05/22 05:34:02;;;;;;;2.57;1.53;;;16.40;1.00;;;;;;5106124;28;20182;-55
2021/05/22 05:36:27;;;;;;;3.13;1.57;;;16.50;1.00;;;;;;5109726;28;20467;-54
2021/05/22 05:38:53;;;;;;;2.03;1.83;;;16.50;1.00;;;;;;5097230;28;20221;-53
2021/05/22 05:41:19;;;;;;;3.30;1.70;;;16.30;1.00;;;;;;5103711;27;20218;-54
2021/05/22 05:43:44;;;;;;;1.07;1.00;;;16.20;1.00;;;;;;5094889;28;20186;-53
2021/05/22 05:46:10;;;;;;;2.07;1.30;;;16.30;1.00;;;;;;5099160;28;20186;-54
2021/05/22 05:48:35;;;;;;;0.93;0.93;;;16.10;1.00;;;;;;5098173;28;20174;-53
2021/05/22 05:51:01;;;;;;;2.97;0.97;;;16.00;1.00;;;;;;5092403;28;20667;-54
2021/05/22 05:53:26;;;;;;;1.77;1.17;;;15.50;1.00;;;;;;5111750;28;20641;-56
2021/05/22 05:55:52;;;;;;;1.20;0.93;;;15.00;1.00;;;;;;5088263;28;20192;-56
2021/05/22 05:58:17;;;;;;;2.43;0.67;;;14.80;1.00;;;;;;5080712;28;20186;-55
2021/05/22 06:00:43;;;;;;;1.70;0.83;;;14.90;1.00;;;;;;5104224;28;20182;-57
2021/05/22 06:03:09;;;;;;;2.70;0.80;;;14.60;1.00;;;;;;5104926;28;20228;-55
2021/05/22 06:05:34;;;;;;;0.83;0.60;;;14.50;1.00;;;;;;5111316;28;20183;-53
2021/05/22 06:08:00;;;;;;;1.40;0.63;;;14.20;1.00;;;;;;5078375;28;20179;-54
2021/05/22 06:10:25;;;;;;;4.27;1.17;;;14.30;1.00;;;;;;5102582;28;20178;-55
2021/05/22 06:12:51;;;;;;;1.73;0.80;;;14.40;1.00;;;;;;5110891;28;20232;-55
2021/05/22 06:17:44;;;;;;;2.03;0.90;;;14.50;1.00;;;;;;5109213;28;20452;-55
2021/05/22 06:20:11;;;;;;;2.47;0.80;;;14.60;1.00;;;;;;5109269;28;20170;-54
2021/05/22 06:22:36;;;;;;;0.50;0.50;;;14.80;1.00;;;;;;5106629;28;20450;-54
2021/05/22 06:25:03;;;;;;;0.60;0.60;;;14.80;1.00;;;;;;5102717;28;20936;-53
2021/05/22 06:27:28;;;;;;;1.03;0.70;;;14.90;1.00;;;;;;5102483;28;20186;-56
2021/05/22 06:29:54;;;;;;;0.80;0.60;;;15.10;1.00;;;;;;5101597;28;20513;-54
2021/05/22 06:32:19;;;;;;;1.27;0.93;;;15.20;1.00;;;;;;5106871;28;20305;-53
2021/05/22 06:34:45;;;;;;;1.07;0.60;;;15.20;1.00;;;;;;5108959;27;20185;-55
2021/05/22 06:37:10;;;;;;;0.80;0.67;;;15.30;1.00;;;;;;5106494;27;20230;-56
2021/05/22 06:39:36;;;;;;;1.67;0.63;;;15.30;1.00;;;;;;5107119;28;20282;-56
2021/05/22 06:42:02;;;;;;;0.70;0.60;;;15.40;1.00;;;;;;5102910;28;20220;-54
2021/05/22 06:44:53;;;;;;;0.73;0.40;;;15.30;1.00;;;;;;5108535;28;20265;-54
2021/05/22 06:47:16;;;;;;;3.33;0.60;;;15.50;1.00;;;;;;5110594;28;20435;-55
2021/05/22 06:49:41;;;;;;;1.60;0.60;;;15.70;1.00;;;;;;5100125;28;20455;-52
2021/05/22 06:52:07;;;;;;;0.80;0.80;;;15.70;1.00;;;;;;5109810;28;20206;-53
2021/05/22 06:54:34;;;;;;;1.20;0.60;;;15.80;1.00;;;;;;5109309;28;20197;-54
2021/05/22 06:57:00;;;;;;;1.27;0.70;;;15.90;1.00;;;;;;5107165;28;20527;-55
2021/05/22 06:59:26;;;;;;;1.10;0.93;;;16.20;1.00;;;;;;5099000;28;20444;-55
2021/05/22 07:01:51;;;;;;;1.40;0.67;;;16.40;1.00;;;;;;5102754;28;20448;-54
2021/05/22 07:04:17;;;;;;;0.90;0.80;;;16.50;1.00;;;;;;5103410;28;20968;-53
2021/05/22 07:06:42;;;;;;;1.00;0.53;;;16.40;1.00;;;;;;5093321;28;20198;-55
2021/05/22 07:09:08;;;;;;;5.13;0.60;;;16.60;1.00;;;;;;5108403;28;20529;-57
2021/05/22 07:11:35;;;;;;;1.73;0.73;;;16.80;1.00;;;;;;5103719;28;20599;-54
2021/05/22 07:14:01;;;;;;;0.87;0.53;;;16.80;1.00;;;;;;5098533;28;20210;-53
2021/05/22 07:16:27;;;;;;;1.67;0.57;;;16.90;1.00;;;;;;5106881;28;20856;-58
2021/05/22 07:18:52;;;;;;;2.20;0.47;;;17.00;1.00;;;;;;5107747;28;20432;-53
2021/05/22 07:21:18;;;;;;;2.20;0.63;;;17.20;1.00;;;;;;5088279;28;20194;-55
2021/05/22 07:23:43;;;;;;;1.00;0.60;;;17.30;1.00;;;;;;5103345;28;20243;-56
2021/05/22 07:26:09;;;;;;;0.63;0.57;;;17.40;1.00;;;;;;5084516;28;20194;-53
2021/05/22 07:28:35;;;;;;;1.33;0.53;;;17.10;1.00;;;;;;5107751;28;20239;-56
2021/05/22 07:31:01;;;;;;;2.40;1.13;;;16.90;1.00;;;;;;5105684;28;20206;-55
2021/05/22 07:33:28;;;;;;;2.97;0.90;;;16.90;1.00;;;;;;5084719;28;20437;-54
2021/05/22 07:35:54;;;;;;;2.40;0.60;;;16.50;1.00;;;;;;5084243;28;20778;-55
2021/05/22 07:38:21;;;;;;;2.00;0.67;;;16.50;1.00;;;;;;5100166;28;20443;-52
2021/05/22 07:40:46;;;;;;;4.77;0.83;;;16.60;1.00;;;;;;5102174;28;20504;-55
2021/05/22 07:43:12;;;;;;;2.00;0.80;;;16.40;1.00;;;;;;5095602;28;20540;-55
2021/05/22 07:45:38;;;;;;;2.80;0.80;;;16.40;1.00;;;;;;5084490;28;20186;-53
2021/05/22 07:48:04;;;;;;;5.40;1.30;;;16.50;1.00;;;;;;5089634;28;20190;-58
2021/05/22 07:50:31;;;;;;;4.87;0.80;;;16.90;1.00;;;;;;5081668;28;20316;-54
2021/05/22 07:52:56;;;;;;;4.00;0.70;;;17.00;1.00;;;;;;5104242;28;20448;-55
2021/05/22 07:55:22;;;;;;;3.10;1.03;;;17.10;1.00;;;;;;5104115;28;20439;-58
2021/05/22 07:57:48;;;;;;;1.93;0.53;;;17.00;1.00;;;;;;5084565;28;20201;-55
2021/05/22 08:00:15;;;;;;;1.47;0.80;;;16.90;1.00;;;;;;5098185;28;20184;-53
2021/05/22 08:02:42;;;;;;;5.20;1.00;;;17.10;1.00;;;;;;5105000;28;20443;-56
2021/05/22 08:05:08;;;;;;;4.40;0.93;;;17.20;1.00;;;;;;5109148;28;20528;-52
2021/05/22 08:07:34;;;;;;;6.20;1.27;;;17.20;1.00;;;;;;5094733;28;20428;-55
2021/05/22 08:10:00;;;;;;;2.10;1.10;;;17.30;1.00;;;;;;5104248;28;20839;-54
2021/05/22 08:12:26;;;;;;;2.80;1.30;;;16.90;1.00;;;;;;5109695;28;20516;-56
2021/05/22 08:14:51;;;;;;;1.63;1.20;;;16.90;1.00;;;;;;5102031;28;20633;-53
2021/05/22 08:17:18;;;;;;;3.30;0.90;;;16.90;1.00;;;;;;5113496;28;20189;-53
2021/05/22 08:19:43;;;;;;;1.17;0.77;;;17.20;1.00;;;;;;5101514;28;20193;-56
2021/05/22 08:22:09;;;;;;;1.00;0.53;;;17.60;1.00;;;;;;5101171;28;20810;-53
2021/05/22 08:24:35;;;;;;;3.00;1.00;;;17.60;1.00;;;;;;5111817;28;20638;-52
2021/05/22 08:27:00;;;;;;;2.10;0.77;;;17.70;1.00;;;;;;5107569;28;20272;-54
2021/05/22 08:29:26;;;;;;;1.10;0.57;;;17.80;1.00;;;;;;5113553;28;20217;-53
2021/05/22 08:31:51;;;;;;;1.73;0.50;;;17.90;1.00;;;;;;5093771;28;20222;-53
2021/05/22 08:34:17;;;;;;;2.80;0.70;;;17.90;1.00;;;;;;5113457;28;20639;-53
2021/05/22 08:36:42;;;;;;;4.57;2.40;;;17.90;1.00;;;;;;5110086;28;20251;-53
2021/05/22 08:39:08;;;;;;;1.00;0.60;;;17.70;1.00;;;;;;5106664;28;20239;-54
2021/05/22 08:41:36;;;;;;;1.30;0.60;;;17.00;1.00;;;;;;5110657;28;20186;-54
2021/05/22 08:44:03;;;;;;;2.27;0.90;;;17.20;1.00;;;;;;5105159;28;20186;-55
2021/05/22 08:46:31;;;;;;;3.60;0.80;;;17.20;1.00;;;;;;5092475;28;20528;-54
2021/05/22 08:48:57;;;;;;;2.23;0.60;;;17.30;1.00;;;;;;5088178;28;20439;-56
2021/05/22 08:51:23;;;;;;;2.03;0.73;;;17.30;1.00;;;;;;5107929;28;20459;-55
2021/05/22 08:53:49;;;;;;;1.60;0.60;;;17.60;1.00;;;;;;5110740;27;20483;-54
2021/05/22 08:56:15;;;;;;;1.70;0.50;;;17.70;1.00;;;;;;5105569;28;20828;-54
2021/05/22 08:58:41;;;;;;;1.73;0.50;;;17.80;1.00;;;;;;5098186;28;20440;-56
2021/05/22 09:01:06;;;;;;;3.03;0.70;;;17.80;1.00;;;;;;5104180;28;20183;-54
2021/05/22 09:03:32;;;;;;;1.50;0.53;;;17.80;1.00;;;;;;5106300;28;20453;-52
2021/05/22 09:05:58;;;;;;;1.77;0.90;;;17.20;1.00;;;;;;5089050;28;20186;-54
2021/05/22 09:08:24;;;;;;;2.10;0.60;;;16.70;1.00;;;;;;5102954;28;20454;-54
2021/05/22 09:10:52;;;;;;;2.50;0.90;;;16.40;1.00;;;;;;5110287;28;20218;-55
2021/05/22 09:13:23;;;;;;;1.77;0.80;;;16.70;1.00;;;;;;5104178;28;20190;-54
2021/05/22 09:16:12;;;;;;;2.53;0.67;;;16.90;1.00;;;;;;5107823;28;20435;-54
2021/05/22 09:18:39;;;;;;;1.70;0.50;;;17.10;1.00;;;;;;5103913;28;20485;-53
2021/05/22 09:21:10;;;;;;;3.10;0.80;;;17.20;1.00;;;;;;5106442;28;20773;-51
2021/05/22 09:23:40;;;;;;;1.40;0.87;;;16.90;1.00;;;;;;5105254;28;20437;-54
2021/05/22 09:26:08;;;;;;;2.63;1.17;;;16.40;1.00;;;;;;5106663;28;20454;-56
2021/05/22 09:28:36;;;;;;;2.40;0.87;;;15.90;1.00;;;;;;5105115;28;20479;-52
2021/05/22 09:31:04;;;;;;;1.33;1.00;;;15.90;1.00;;;;;;5107344;28;20846;-52
2021/05/22 09:33:35;;;;;;;1.70;0.50;;;16.40;1.00;;;;;;5103872;28;20441;-52
2021/05/22 09:36:06;;;;;;;1.53;0.90;;;16.80;1.00;;;;;;5100710;28;20455;-53
2021/05/22 09:38:48;;;;;;;2.87;0.90;;;17.00;1.00;;;;;;5110489;28;20436;-53
2021/05/22 09:41:17;;;;;;;3.73;1.10;;;17.30;1.00;;;;;;5102358;28;20443;-53
2021/05/22 09:44:09;;;;;;;0.93;0.80;;;17.60;1.00;;;;;;5099048;27;20444;-52
2021/05/22 09:46:45;;;;;;;1.87;0.90;;;17.90;1.00;;;;;;5105353;27;20534;-52
2021/05/22 09:49:28;;;;;;;3.40;1.10;;;17.60;1.00;;;;;;5106760;28;20549;-53
2021/05/22 09:52:04;;;;;;;1.40;0.60;;;17.80;1.00;;;;;;5090315;28;20516;-55
2021/05/22 09:54:49;;;;;;;1.20;0.80;;;18.30;1.00;;;;;;5107895;28;20435;-56
2021/05/22 09:57:19;;;;;;;2.07;0.73;;;18.30;1.00;;;;;;5087950;28;21138;-55
2021/05/22 10:00:19;;;;;;;2.87;1.03;;;18.60;1.00;;;;;;5094992;28;20451;-55
2021/05/22 10:02:46;;;;;;;2.00;0.80;;;18.80;1.00;;;;;;5049162;28;20498;-55
2021/05/22 10:05:16;;;;;;;3.13;1.00;;;18.70;1.00;;;;;;5109908;27;20449;-55
2021/05/22 10:07:42;;;;;;;1.70;0.80;;;18.80;1.00;;;;;;5100777;28;20429;-51
2021/05/22 10:10:08;;;;;;;1.30;0.73;;;19.10;1.00;;;;;;5102191;28;20711;-55
2021/05/22 10:12:36;;;;;;;1.90;1.00;;;19.30;1.00;;;;;;5106644;28;20497;-53
2021/05/22 10:15:04;;;;;;;2.17;0.70;;;19.40;1.00;;;;;;5104356;28;20439;-55
2021/05/22 10:17:30;;;;;;;2.07;0.90;;;19.20;1.00;;;;;;5107427;28;20440;-54
2021/05/22 10:19:56;;;;;;;2.73;0.73;;;18.50;1.00;;;;;;5097223;28;20447;-53
2021/05/22 10:22:22;;;;;;;2.50;0.97;;;18.30;1.00;;;;;;5103250;28;20948;-55
2021/05/22 10:24:48;;;;;;;3.20;0.80;;;18.50;1.00;;;;;;5082342;28;20497;-52
2021/05/22 10:27:14;;;;;;;2.73;0.90;;;18.40;1.00;;;;;;5084168;28;20224;-54
2021/05/22 10:29:40;;;;;;;3.03;1.27;;;18.00;1.00;;;;;;5101999;27;20614;-56
2021/05/22 10:32:06;;;;;;;2.60;0.80;;;18.00;1.00;;;;;;5100422;27;20460;-52
2021/05/22 10:34:36;;;;;;;3.20;0.90;;;18.10;1.00;;;;;;5111064;27;20206;-54
2021/05/22 10:37:02;;;;;;;3.40;0.80;;;18.70;1.00;;;;;;5107378;28;20555;-55
2021/05/22 10:39:44;;;;;;;1.73;0.60;;;18.70;1.00;;;;;;5105785;28;20585;-52
2021/05/22 10:42:29;;;;;;;1.60;0.50;;;18.80;1.00;;;;;;5107507;28;20477;-56
2021/05/22 10:44:56;;;;;;;2.77;0.77;;;18.70;1.00;;;;;;5083541;28;20452;-53
2021/05/22 10:47:26;;;;;;;4.20;0.90;;;18.90;1.00;;;;;;5108112;28;20447;-54
2021/05/22 10:49:57;;;;;;;1.80;0.50;;;18.70;1.00;;;;;;5106701;28;20791;-53
2021/05/22 10:52:27;;;;;;;2.00;0.60;;;18.80;1.00;;;;;;5105186;28;20474;-53
2021/05/22 10:55:06;;;;;;;0.67;0.60;;;18.90;1.00;;;;;;5108770;28;20450;-52
2021/05/22 10:57:55;;;;;;;4.70;0.97;;;19.10;1.00;;;;;;5107689;28;20527;-55
2021/05/22 11:00:23;;;;;;;1.53;0.67;;;19.20;1.00;;;;;;5104829;28;20740;-56
2021/05/22 11:03:08;;;;;;;4.40;0.90;;;19.10;1.00;;;;;;5106552;28;20448;-56
2021/05/22 11:05:39;;;;;;;2.60;0.70;;;19.30;1.00;;;;;;5101807;28;20905;-53
2021/05/22 11:08:04;;;;;;;3.27;0.97;;;19.30;1.00;;;;;;5103830;28;20530;-53
2021/05/22 11:10:41;;;;;;;2.30;0.70;;;19.40;1.00;;;;;;5095490;28;20842;-54
2021/05/22 11:13:09;;;;;;;2.50;0.70;;;19.50;1.00;;;;;;5101899;28;20181;-55
2021/05/22 11:15:55;;;;;;;3.63;0.80;;;19.70;1.00;;;;;;5100452;28;20435;-53
2021/05/22 11:18:47;;;;;;;3.00;0.70;;;19.50;1.00;;;;;;5109523;28;20435;-55
2021/05/22 11:21:20;;;;;;;1.60;0.67;;;19.10;1.00;;;;;;5108339;28;20540;-53
2021/05/22 11:24:01;;;;;;;2.67;0.50;;;19.40;1.00;;;;;;5102805;28;20961;-52
2021/05/22 11:26:58;;;;;;;1.07;0.70;;;19.10;1.00;;;;;;5109182;28;20450;-53
2021/05/22 11:29:54;;;;;;;2.30;0.80;;;19.30;1.00;;;;;;5101344;28;20479;-52
2021/05/22 11:32:57;;;;;;;1.13;0.63;;;19.70;1.00;;;;;;5079376;28;20468;-54
2021/05/22 11:35:26;;;;;;;2.00;0.57;;;19.90;1.00;;;;;;5091164;28;20505;-54
2021/05/22 11:37:57;;;;;;;2.43;0.80;;;20.70;1.00;;;;;;5103177;28;20443;-53
2021/05/22 11:40:42;;;;;;;2.10;1.33;;;21.80;1.00;;;;;;5105963;28;20586;-53
2021/05/22 11:43:23;;;;;;;0.73;0.50;;;22.70;1.00;;;;;;5079257;28;20440;-57
2021/05/22 11:46:13;;;;;;;2.50;0.70;;;22.90;1.00;;;;;;5100841;28;20435;-53
2021/05/22 11:48:48;;;;;;;1.27;0.80;;;22.50;1.00;;;;;;5091974;28;21020;-56
2021/05/22 11:51:25;;;;;;;1.13;0.60;;;22.00;1.00;;;;;;5111775;28;20584;-56
2021/05/22 11:54:03;;;;;;;2.23;0.70;;;21.00;1.00;;;;;;5098030;28;20435;-55
2021/05/22 11:56:33;;;;;;;1.50;0.60;;;20.40;1.00;;;;;;5114178;28;20495;-55
2021/05/22 11:59:00;;;;;;;1.03;0.80;;;20.00;1.00;;;;;;5097538;28;20950;-53
2021/05/22 12:01:38;;;;;;;1.47;0.70;;;20.00;1.00;;;;;;5107409;28;20532;-53
2021/05/22 12:04:11;;;;;;;3.67;0.80;;;19.70;1.00;;;;;;5112717;28;20444;-56
2021/05/22 12:06:42;;;;;;;1.43;0.60;;;19.70;1.00;;;;;;5110240;28;20436;-55
2021/05/22 12:09:21;;;;;;;0.80;0.63;;;19.80;1.00;;;;;;5112700;28;20427;-52
2021/05/22 12:12:05;;;;;;;1.77;0.87;;;20.10;1.00;;;;;;5102460;28;20551;-54
2021/05/22 12:14:47;;;;;;;1.90;0.50;;;20.20;1.00;;;;;;5107129;28;20466;-55
2021/05/22 12:17:15;;;;;;;3.70;1.73;;;20.20;1.00;;;;;;5111812;28;20418;-56
2021/05/22 12:19:45;;;;;;;1.83;0.60;;;20.40;1.00;;;;;;5096875;28;21155;-54
2021/05/22 12:22:12;;;;;;;1.47;0.80;;;20.50;1.00;;;;;;5101322;28;20440;-54
2021/05/22 12:24:38;;;;;;;1.47;0.80;;;20.40;1.00;;;;;;5110992;28;20407;-54
2021/05/22 12:27:04;;;;;;;2.10;0.63;;;20.40;1.00;;;;;;5108375;28;20443;-54
2021/05/22 12:29:31;;;;;;;1.10;0.50;;;20.00;1.00;;;;;;5110280;28;20428;-56
2021/05/22 12:32:00;;;;;;;1.77;0.90;;;19.60;1.00;;;;;;5097352;28;20871;-56
2021/05/22 12:34:31;;;;;;;2.07;0.70;;;20.00;1.00;;;;;;5114010;28;20519;-56
2021/05/22 12:37:00;;;;;;;1.63;0.70;;;19.70;1.00;;;;;;5109223;28;20543;-53
2021/05/22 12:39:56;;;;;;;2.87;0.80;;;19.80;1.00;;;;;;5100772;28;20460;-53
2021/05/22 12:42:36;;;;;;;2.23;0.70;;;19.90;1.00;;;;;;5095468;28;20444;-53
2021/05/22 12:45:08;;;;;;;4.80;0.60;;;20.20;1.00;;;;;;5099118;28;20450;-55
2021/05/22 12:47:39;;;;;;;2.33;0.80;;;20.50;1.00;;;;;;5103509;28;20964;-56
2021/05/22 12:50:07;;;;;;;0.97;0.63;;;20.10;1.00;;;;;;5104956;28;20439;-56
2021/05/22 12:52:51;;;;;;;2.10;0.80;;;19.80;1.00;;;;;;5107710;28;20824;-55
2021/05/22 12:55:37;;;;;;;1.90;0.80;;;19.70;1.00;;;;;;5089461;28;20851;-57
2021/05/22 12:58:21;;;;;;;2.33;0.80;;;19.70;1.00;;;;;;5086963;28;20445;-55
2021/05/22 13:00:50;;;;;;;2.80;0.70;;;19.90;1.00;;;;;;5090343;28;20909;-56
2021/05/22 13:03:16;;;;;;;2.63;0.80;;;19.80;1.00;;;;;;5081904;28;20436;-57
2021/05/22 13:05:48;;;;;;;1.57;0.60;;;19.70;1.00;;;;;;5102464;28;20440;-58
2021/05/22 13:08:24;;;;;;;0.73;0.57;;;19.90;1.00;;;;;;5109131;28;20214;-56